sensor_id;sensor_type;location;lat;lon;timestamp;P1;durP1;ratioP1;P2;durP2;ratioP2
37477;SDS011;23334;54.316;10.182;2023-06-22T00:00:49;5.00;;;3.53;;
37477;SDS011;23334;54.316;10.182;2023-06-22T00:03:15;6.17;;;3.80;;
37477;SDS011;23334;54.316;10.182;2023-06-22T00:05:41;3.93;;;3.60;;
37477;SDS011;23334;54.316;10.182;2023-06-22T00:08:07;4.50;;;3.70;;
37477;SDS011;23334;54.316;10.182;2023-06-22T00:10:33;3.70;;;3.40;;
37477;SDS011;23334;54.316;10.182;2023-06-22T00:12:58;5.33;;;4.00;;
37477;SDS011;23334;54.316;10.182;2023-06-22T00:15:24;6.80;;;4.07;;
37477;SDS011;23334;54.316;10.182;2023-06-22T00:17:49;5.57;;;4.30;;
37477;SDS011;23334;54.316;10.182;2023-06-22T00:20:16;3.37;;;3.07;;
37477;SDS011;23334;54.316;10.182;2023-06-22T00:22:43;4.60;;;4.17;;
37477;SDS011;23334;54.316;10.182;2023-06-22T00:25:09;5.93;;;4.00;;
37477;SDS011;23334;54.316;10.182;2023-06-22T00:27:35;5.70;;;4.17;;
37477;SDS011;23334;54.316;10.182;2023-06-22T00:30:01;6.70;;;4.70;;
37477;SDS011;23334;54.316;10.182;2023-06-22T00:32:27;5.87;;;4.47;;
37477;SDS011;23334;54.316;10.182;2023-06-22T00:34:53;5.33;;;4.00;;
37477;SDS011;23334;54.316;10.182;2023-06-22T00:37:18;5.37;;;4.23;;
37477;SDS011;23334;54.316;10.182;2023-06-22T00:39:44;6.40;;;4.50;;
37477;SDS011;23334;54.316;10.182;2023-06-22T00:42:09;5.80;;;3.87;;
37477;SDS011;23334;54.316;10.182;2023-06-22T00:44:35;5.10;;;4.60;;
37477;SDS011;23334;54.316;10.182;2023-06-22T00:47:01;4.30;;;3.90;;
37477;SDS011;23334;54.316;10.182;2023-06-22T00:49:27;4.57;;;4.03;;
37477;SDS011;23334;54.316;10.182;2023-06-22T00:51:53;5.50;;;3.80;;
37477;SDS011;23334;54.316;10.182;2023-06-22T00:54:19;6.53;;;3.80;;
37477;SDS011;23334;54.316;10.182;2023-06-22T00:56:50;6.40;;;4.00;;
37477;SDS011;23334;54.316;10.182;2023-06-22T00:59:19;6.47;;;4.80;;
37477;SDS011;23334;54.316;10.182;2023-06-22T01:01:45;5.33;;;4.27;;
37477;SDS011;23334;54.316;10.182;2023-06-22T01:04:11;5.40;;;4.27;;
37477;SDS011;23334;54.316;10.182;2023-06-22T01:06:38;4.17;;;3.77;;
37477;SDS011;23334;54.316;10.182;2023-06-22T01:09:20;6.97;;;5.17;;
37477;SDS011;23334;54.316;10.182;2023-06-22T01:11:52;6.77;;;4.40;;
37477;SDS011;23334;54.316;10.182;2023-06-22T01:14:25;7.07;;;4.30;;
37477;SDS011;23334;54.316;10.182;2023-06-22T01:17:00;8.13;;;4.80;;
37477;SDS011;23334;54.316;10.182;2023-06-22T01:19:39;5.33;;;4.70;;
37477;SDS011;23334;54.316;10.182;2023-06-22T01:22:11;7.33;;;5.40;;
37477;SDS011;23334;54.316;10.182;2023-06-22T01:24:41;4.63;;;4.20;;
37477;SDS011;23334;54.316;10.182;2023-06-22T01:27:28;6.60;;;4.83;;
37477;SDS011;23334;54.316;10.182;2023-06-22T01:30:17;6.40;;;5.70;;
37477;SDS011;23334;54.316;10.182;2023-06-22T01:32:44;6.47;;;5.77;;
37477;SDS011;23334;54.316;10.182;2023-06-22T01:35:10;6.20;;;4.70;;
37477;SDS011;23334;54.316;10.182;2023-06-22T01:37:36;6.70;;;5.17;;
37477;SDS011;23334;54.316;10.182;2023-06-22T01:40:03;5.37;;;4.80;;
37477;SDS011;23334;54.316;10.182;2023-06-22T01:42:31;6.60;;;4.63;;
37477;SDS011;23334;54.316;10.182;2023-06-22T01:44:57;7.03;;;4.63;;
37477;SDS011;23334;54.316;10.182;2023-06-22T01:47:24;5.60;;;5.00;;
37477;SDS011;23334;54.316;10.182;2023-06-22T01:49:50;7.73;;;5.10;;
37477;SDS011;23334;54.316;10.182;2023-06-22T01:52:16;5.33;;;4.87;;
37477;SDS011;23334;54.316;10.182;2023-06-22T01:54:43;6.80;;;5.30;;
37477;SDS011;23334;54.316;10.182;2023-06-22T01:57:08;6.10;;;5.50;;
37477;SDS011;23334;54.316;10.182;2023-06-22T01:59:37;9.43;;;4.40;;
37477;SDS011;23334;54.316;10.182;2023-06-22T02:02:13;7.20;;;5.37;;
37477;SDS011;23334;54.316;10.182;2023-06-22T02:04:51;9.07;;;5.30;;
37477;SDS011;23334;54.316;10.182;2023-06-22T02:07:21;5.70;;;4.70;;
37477;SDS011;23334;54.316;10.182;2023-06-22T02:09:49;4.93;;;4.43;;
37477;SDS011;23334;54.316;10.182;2023-06-22T02:12:17;6.33;;;4.90;;
37477;SDS011;23334;54.316;10.182;2023-06-22T02:14:46;4.60;;;4.17;;
37477;SDS011;23334;54.316;10.182;2023-06-22T02:17:12;5.80;;;4.67;;
37477;SDS011;23334;54.316;10.182;2023-06-22T02:19:38;5.13;;;4.53;;
37477;SDS011;23334;54.316;10.182;2023-06-22T02:22:06;6.00;;;4.30;;
37477;SDS011;23334;54.316;10.182;2023-06-22T02:24:32;5.17;;;4.57;;
37477;SDS011;23334;54.316;10.182;2023-06-22T02:26:58;4.70;;;4.20;;
37477;SDS011;23334;54.316;10.182;2023-06-22T02:29:25;4.60;;;4.20;;
37477;SDS011;23334;54.316;10.182;2023-06-22T02:31:51;5.97;;;4.80;;
37477;SDS011;23334;54.316;10.182;2023-06-22T02:34:17;5.33;;;4.83;;
37477;SDS011;23334;54.316;10.182;2023-06-22T02:36:44;6.50;;;4.53;;
37477;SDS011;23334;54.316;10.182;2023-06-22T02:39:16;7.33;;;4.50;;
37477;SDS011;23334;54.316;10.182;2023-06-22T02:41:45;4.40;;;4.00;;
37477;SDS011;23334;54.316;10.182;2023-06-22T02:44:11;5.10;;;4.60;;
37477;SDS011;23334;54.316;10.182;2023-06-22T02:46:36;5.60;;;5.10;;
37477;SDS011;23334;54.316;10.182;2023-06-22T02:49:02;9.43;;;4.87;;
37477;SDS011;23334;54.316;10.182;2023-06-22T02:51:28;8.27;;;5.40;;
37477;SDS011;23334;54.316;10.182;2023-06-22T02:53:53;10.73;;;5.83;;
37477;SDS011;23334;54.316;10.182;2023-06-22T02:56:22;5.30;;;4.80;;
37477;SDS011;23334;54.316;10.182;2023-06-22T02:58:50;5.50;;;4.80;;
37477;SDS011;23334;54.316;10.182;2023-06-22T03:01:16;5.50;;;4.60;;
37477;SDS011;23334;54.316;10.182;2023-06-22T03:03:41;6.53;;;5.10;;
37477;SDS011;23334;54.316;10.182;2023-06-22T03:06:07;8.10;;;5.30;;
37477;SDS011;23334;54.316;10.182;2023-06-22T03:08:33;8.60;;;4.60;;
37477;SDS011;23334;54.316;10.182;2023-06-22T03:10:58;6.40;;;5.40;;
37477;SDS011;23334;54.316;10.182;2023-06-22T03:13:23;7.50;;;5.10;;
37477;SDS011;23334;54.316;10.182;2023-06-22T03:15:49;8.93;;;5.10;;
37477;SDS011;23334;54.316;10.182;2023-06-22T03:18:14;7.20;;;5.63;;
37477;SDS011;23334;54.316;10.182;2023-06-22T03:20:40;6.90;;;5.67;;
37477;SDS011;23334;54.316;10.182;2023-06-22T03:23:06;8.20;;;5.80;;
37477;SDS011;23334;54.316;10.182;2023-06-22T03:25:31;7.60;;;5.53;;
37477;SDS011;23334;54.316;10.182;2023-06-22T03:27:58;8.87;;;5.93;;
37477;SDS011;23334;54.316;10.182;2023-06-22T03:30:25;9.20;;;4.70;;
37477;SDS011;23334;54.316;10.182;2023-06-22T03:32:51;8.37;;;5.33;;
37477;SDS011;23334;54.316;10.182;2023-06-22T03:35:16;7.20;;;5.90;;
37477;SDS011;23334;54.316;10.182;2023-06-22T03:37:42;5.77;;;5.17;;
37477;SDS011;23334;54.316;10.182;2023-06-22T03:40:08;11.00;;;5.50;;
37477;SDS011;23334;54.316;10.182;2023-06-22T03:42:34;5.90;;;5.30;;
37477;SDS011;23334;54.316;10.182;2023-06-22T03:45:03;8.23;;;5.90;;
37477;SDS011;23334;54.316;10.182;2023-06-22T03:47:29;9.03;;;5.53;;
37477;SDS011;23334;54.316;10.182;2023-06-22T03:49:55;6.97;;;6.10;;
37477;SDS011;23334;54.316;10.182;2023-06-22T03:52:23;10.60;;;6.87;;
37477;SDS011;23334;54.316;10.182;2023-06-22T03:54:50;6.57;;;5.87;;
37477;SDS011;23334;54.316;10.182;2023-06-22T03:57:15;6.30;;;5.60;;
37477;SDS011;23334;54.316;10.182;2023-06-22T03:59:41;10.17;;;5.70;;
37477;SDS011;23334;54.316;10.182;2023-06-22T04:02:07;7.87;;;5.70;;
37477;SDS011;23334;54.316;10.182;2023-06-22T04:04:33;7.20;;;5.57;;
37477;SDS011;23334;54.316;10.182;2023-06-22T04:07:00;12.93;;;5.90;;
37477;SDS011;23334;54.316;10.182;2023-06-22T04:09:25;6.10;;;5.30;;
37477;SDS011;23334;54.316;10.182;2023-06-22T04:11:51;8.40;;;5.60;;
37477;SDS011;23334;54.316;10.182;2023-06-22T04:14:17;7.13;;;6.20;;
37477;SDS011;23334;54.316;10.182;2023-06-22T04:16:42;6.50;;;5.30;;
37477;SDS011;23334;54.316;10.182;2023-06-22T04:19:07;8.50;;;5.70;;
37477;SDS011;23334;54.316;10.182;2023-06-22T04:21:38;6.13;;;5.63;;
37477;SDS011;23334;54.316;10.182;2023-06-22T04:24:04;7.20;;;5.90;;
37477;SDS011;23334;54.316;10.182;2023-06-22T04:26:30;7.63;;;6.17;;
37477;SDS011;23334;54.316;10.182;2023-06-22T04:29:01;11.10;;;6.20;;
37477;SDS011;23334;54.316;10.182;2023-06-22T04:31:31;7.90;;;6.13;;
37477;SDS011;23334;54.316;10.182;2023-06-22T04:33:57;9.53;;;5.53;;
37477;SDS011;23334;54.316;10.182;2023-06-22T04:36:32;6.77;;;6.07;;
37477;SDS011;23334;54.316;10.182;2023-06-22T04:39:03;7.37;;;5.70;;
37477;SDS011;23334;54.316;10.182;2023-06-22T04:41:30;6.10;;;5.50;;
37477;SDS011;23334;54.316;10.182;2023-06-22T04:44:06;6.57;;;5.23;;
37477;SDS011;23334;54.316;10.182;2023-06-22T04:46:32;8.40;;;5.33;;
37477;SDS011;23334;54.316;10.182;2023-06-22T04:49:00;6.67;;;5.97;;
37477;SDS011;23334;54.316;10.182;2023-06-22T04:51:25;6.40;;;5.70;;
37477;SDS011;23334;54.316;10.182;2023-06-22T04:53:55;6.50;;;5.47;;
37477;SDS011;23334;54.316;10.182;2023-06-22T04:56:25;7.67;;;6.20;;
37477;SDS011;23334;54.316;10.182;2023-06-22T04:58:52;9.00;;;6.40;;
37477;SDS011;23334;54.316;10.182;2023-06-22T05:01:20;11.00;;;7.30;;
37477;SDS011;23334;54.316;10.182;2023-06-22T05:03:47;7.60;;;6.50;;
37477;SDS011;23334;54.316;10.182;2023-06-22T05:06:13;9.07;;;5.33;;
37477;SDS011;23334;54.316;10.182;2023-06-22T05:08:39;9.53;;;6.53;;
37477;SDS011;23334;54.316;10.182;2023-06-22T05:11:05;14.07;;;5.63;;
37477;SDS011;23334;54.316;10.182;2023-06-22T05:13:30;8.50;;;5.50;;
37477;SDS011;23334;54.316;10.182;2023-06-22T05:15:56;6.20;;;5.17;;
37477;SDS011;23334;54.316;10.182;2023-06-22T05:18:26;6.47;;;4.60;;
37477;SDS011;23334;54.316;10.182;2023-06-22T05:20:55;6.60;;;5.20;;
37477;SDS011;23334;54.316;10.182;2023-06-22T05:23:20;8.57;;;4.60;;
37477;SDS011;23334;54.316;10.182;2023-06-22T05:25:46;5.40;;;4.70;;
37477;SDS011;23334;54.316;10.182;2023-06-22T05:28:12;7.33;;;4.80;;
37477;SDS011;23334;54.316;10.182;2023-06-22T05:30:37;6.60;;;4.77;;
37477;SDS011;23334;54.316;10.182;2023-06-22T05:33:03;5.50;;;4.77;;
37477;SDS011;23334;54.316;10.182;2023-06-22T05:35:29;6.50;;;5.87;;
37477;SDS011;23334;54.316;10.182;2023-06-22T05:37:55;9.17;;;5.00;;
37477;SDS011;23334;54.316;10.182;2023-06-22T05:40:21;9.20;;;4.47;;
37477;SDS011;23334;54.316;10.182;2023-06-22T05:42:47;5.80;;;4.40;;
37477;SDS011;23334;54.316;10.182;2023-06-22T05:45:12;7.70;;;4.00;;
37477;SDS011;23334;54.316;10.182;2023-06-22T05:47:38;5.00;;;4.50;;
37477;SDS011;23334;54.316;10.182;2023-06-22T05:50:04;3.87;;;3.57;;
37477;SDS011;23334;54.316;10.182;2023-06-22T05:52:32;7.10;;;3.53;;
37477;SDS011;23334;54.316;10.182;2023-06-22T05:54:57;3.97;;;3.50;;
37477;SDS011;23334;54.316;10.182;2023-06-22T05:57:23;3.40;;;3.10;;
37477;SDS011;23334;54.316;10.182;2023-06-22T05:59:49;3.53;;;3.10;;
37477;SDS011;23334;54.316;10.182;2023-06-22T06:02:14;6.90;;;3.40;;
37477;SDS011;23334;54.316;10.182;2023-06-22T06:04:40;4.13;;;3.00;;
37477;SDS011;23334;54.316;10.182;2023-06-22T06:07:05;5.77;;;3.23;;
37477;SDS011;23334;54.316;10.182;2023-06-22T06:09:31;6.57;;;2.87;;
37477;SDS011;23334;54.316;10.182;2023-06-22T06:11:57;5.70;;;3.03;;
37477;SDS011;23334;54.316;10.182;2023-06-22T06:14:23;6.80;;;2.23;;
37477;SDS011;23334;54.316;10.182;2023-06-22T06:16:49;2.40;;;1.60;;
37477;SDS011;23334;54.316;10.182;2023-06-22T06:19:14;6.73;;;2.27;;
37477;SDS011;23334;54.316;10.182;2023-06-22T06:21:40;2.20;;;1.70;;
37477;SDS011;23334;54.316;10.182;2023-06-22T06:24:05;4.20;;;2.30;;
37477;SDS011;23334;54.316;10.182;2023-06-22T06:26:32;8.67;;;3.07;;
37477;SDS011;23334;54.316;10.182;2023-06-22T06:29:00;2.60;;;2.40;;
37477;SDS011;23334;54.316;10.182;2023-06-22T06:31:27;9.53;;;2.60;;
37477;SDS011;23334;54.316;10.182;2023-06-22T06:33:53;4.40;;;2.10;;
37477;SDS011;23334;54.316;10.182;2023-06-22T06:36:19;5.00;;;2.10;;
37477;SDS011;23334;54.316;10.182;2023-06-22T06:38:45;10.40;;;2.27;;
37477;SDS011;23334;54.316;10.182;2023-06-22T06:41:12;4.37;;;1.77;;
37477;SDS011;23334;54.316;10.182;2023-06-22T06:43:39;7.60;;;2.03;;
37477;SDS011;23334;54.316;10.182;2023-06-22T06:46:07;6.03;;;1.60;;
37477;SDS011;23334;54.316;10.182;2023-06-22T06:48:33;4.50;;;1.37;;
37477;SDS011;23334;54.316;10.182;2023-06-22T06:50:59;19.10;;;2.97;;
37477;SDS011;23334;54.316;10.182;2023-06-22T06:53:25;2.57;;;1.50;;
37477;SDS011;23334;54.316;10.182;2023-06-22T06:55:51;6.27;;;1.90;;
37477;SDS011;23334;54.316;10.182;2023-06-22T06:58:17;3.10;;;1.30;;
37477;SDS011;23334;54.316;10.182;2023-06-22T07:00:43;3.20;;;1.43;;
37477;SDS011;23334;54.316;10.182;2023-06-22T07:03:09;3.33;;;1.47;;
37477;SDS011;23334;54.316;10.182;2023-06-22T07:05:35;2.50;;;1.23;;
37477;SDS011;23334;54.316;10.182;2023-06-22T07:08:00;2.60;;;1.50;;
37477;SDS011;23334;54.316;10.182;2023-06-22T07:10:26;3.37;;;1.30;;
37477;SDS011;23334;54.316;10.182;2023-06-22T07:12:52;5.37;;;1.33;;
37477;SDS011;23334;54.316;10.182;2023-06-22T07:15:18;8.43;;;1.73;;
37477;SDS011;23334;54.316;10.182;2023-06-22T07:17:43;6.27;;;1.73;;
37477;SDS011;23334;54.316;10.182;2023-06-22T07:20:09;5.47;;;1.60;;
37477;SDS011;23334;54.316;10.182;2023-06-22T07:22:36;3.57;;;0.97;;
37477;SDS011;23334;54.316;10.182;2023-06-22T07:25:02;20.43;;;2.77;;
37477;SDS011;23334;54.316;10.182;2023-06-22T07:27:33;1.50;;;1.40;;
37477;SDS011;23334;54.316;10.182;2023-06-22T07:30:02;11.20;;;2.00;;
37477;SDS011;23334;54.316;10.182;2023-06-22T07:32:28;1.60;;;1.20;;
37477;SDS011;23334;54.316;10.182;2023-06-22T07:34:54;3.00;;;1.67;;
37477;SDS011;23334;54.316;10.182;2023-06-22T07:37:19;1.93;;;1.50;;
37477;SDS011;23334;54.316;10.182;2023-06-22T07:39:45;2.83;;;1.50;;
37477;SDS011;23334;54.316;10.182;2023-06-22T07:42:10;7.20;;;1.90;;
37477;SDS011;23334;54.316;10.182;2023-06-22T07:44:36;7.77;;;1.73;;
37477;SDS011;23334;54.316;10.182;2023-06-22T07:47:02;1.67;;;1.10;;
37477;SDS011;23334;54.316;10.182;2023-06-22T07:49:28;5.13;;;1.60;;
37477;SDS011;23334;54.316;10.182;2023-06-22T07:51:54;8.10;;;2.07;;
37477;SDS011;23334;54.316;10.182;2023-06-22T07:54:19;2.03;;;1.13;;
37477;SDS011;23334;54.316;10.182;2023-06-22T07:56:46;2.60;;;1.57;;
37477;SDS011;23334;54.316;10.182;2023-06-22T07:59:12;6.73;;;1.40;;
37477;SDS011;23334;54.316;10.182;2023-06-22T08:01:37;5.33;;;1.60;;
37477;SDS011;23334;54.316;10.182;2023-06-22T08:04:03;1.83;;;1.20;;
37477;SDS011;23334;54.316;10.182;2023-06-22T08:06:29;3.80;;;1.60;;
37477;SDS011;23334;54.316;10.182;2023-06-22T08:08:55;5.47;;;1.20;;
37477;SDS011;23334;54.316;10.182;2023-06-22T08:11:21;4.03;;;1.40;;
37477;SDS011;23334;54.316;10.182;2023-06-22T08:13:50;3.53;;;1.70;;
37477;SDS011;23334;54.316;10.182;2023-06-22T08:16:15;3.80;;;1.90;;
37477;SDS011;23334;54.316;10.182;2023-06-22T08:18:41;1.93;;;1.20;;
37477;SDS011;23334;54.316;10.182;2023-06-22T08:21:06;6.80;;;1.73;;
37477;SDS011;23334;54.316;10.182;2023-06-22T08:23:32;5.73;;;1.50;;
37477;SDS011;23334;54.316;10.182;2023-06-22T08:25:58;4.27;;;1.33;;
37477;SDS011;23334;54.316;10.182;2023-06-22T08:28:24;8.87;;;1.90;;
37477;SDS011;23334;54.316;10.182;2023-06-22T08:30:50;3.43;;;1.67;;
37477;SDS011;23334;54.316;10.182;2023-06-22T08:33:16;3.93;;;1.60;;
37477;SDS011;23334;54.316;10.182;2023-06-22T08:35:42;6.40;;;1.80;;
37477;SDS011;23334;54.316;10.182;2023-06-22T08:38:08;2.20;;;1.30;;
37477;SDS011;23334;54.316;10.182;2023-06-22T08:40:34;6.13;;;1.67;;
37477;SDS011;23334;54.316;10.182;2023-06-22T08:43:00;6.77;;;1.90;;
37477;SDS011;23334;54.316;10.182;2023-06-22T08:45:26;7.40;;;1.90;;
37477;SDS011;23334;54.316;10.182;2023-06-22T08:47:51;7.53;;;2.03;;
37477;SDS011;23334;54.316;10.182;2023-06-22T08:50:16;2.10;;;1.40;;
37477;SDS011;23334;54.316;10.182;2023-06-22T08:52:42;2.93;;;1.37;;
37477;SDS011;23334;54.316;10.182;2023-06-22T08:55:08;2.60;;;1.50;;
37477;SDS011;23334;54.316;10.182;2023-06-22T08:57:35;8.27;;;1.90;;
37477;SDS011;23334;54.316;10.182;2023-06-22T09:00:04;2.30;;;1.37;;
37477;SDS011;23334;54.316;10.182;2023-06-22T09:02:36;8.03;;;2.00;;
37477;SDS011;23334;54.316;10.182;2023-06-22T09:05:02;2.97;;;1.63;;
37477;SDS011;23334;54.316;10.182;2023-06-22T09:07:28;2.00;;;1.43;;
37477;SDS011;23334;54.316;10.182;2023-06-22T09:09:55;3.53;;;1.40;;
37477;SDS011;23334;54.316;10.182;2023-06-22T09:12:21;3.70;;;1.73;;
37477;SDS011;23334;54.316;10.182;2023-06-22T09:14:50;3.80;;;1.00;;
37477;SDS011;23334;54.316;10.182;2023-06-22T09:17:16;3.90;;;1.23;;
37477;SDS011;23334;54.316;10.182;2023-06-22T09:19:42;6.53;;;1.77;;
37477;SDS011;23334;54.316;10.182;2023-06-22T09:22:07;7.30;;;1.90;;
37477;SDS011;23334;54.316;10.182;2023-06-22T09:24:33;3.90;;;1.20;;
37477;SDS011;23334;54.316;10.182;2023-06-22T09:26:59;2.50;;;1.00;;
37477;SDS011;23334;54.316;10.182;2023-06-22T09:29:25;1.87;;;1.33;;
37477;SDS011;23334;54.316;10.182;2023-06-22T09:31:51;9.77;;;1.90;;
37477;SDS011;23334;54.316;10.182;2023-06-22T09:34:18;12.60;;;2.50;;
37477;SDS011;23334;54.316;10.182;2023-06-22T09:36:45;1.57;;;1.30;;
37477;SDS011;23334;54.316;10.182;2023-06-22T09:39:11;3.90;;;1.60;;
37477;SDS011;23334;54.316;10.182;2023-06-22T09:41:37;4.20;;;1.33;;
37477;SDS011;23334;54.316;10.182;2023-06-22T09:44:03;2.33;;;1.60;;
37477;SDS011;23334;54.316;10.182;2023-06-22T09:46:29;5.67;;;2.10;;
37477;SDS011;23334;54.316;10.182;2023-06-22T09:48:55;1.80;;;1.70;;
37477;SDS011;23334;54.316;10.182;2023-06-22T09:51:22;2.43;;;1.20;;
37477;SDS011;23334;54.316;10.182;2023-06-22T09:53:48;1.67;;;1.30;;
37477;SDS011;23334;54.316;10.182;2023-06-22T09:56:15;7.57;;;2.00;;
37477;SDS011;23334;54.316;10.182;2023-06-22T09:58:41;4.10;;;1.60;;
37477;SDS011;23334;54.316;10.182;2023-06-22T10:01:07;2.60;;;1.27;;
37477;SDS011;23334;54.316;10.182;2023-06-22T10:03:33;4.10;;;1.63;;
37477;SDS011;23334;54.316;10.182;2023-06-22T10:05:58;3.77;;;1.60;;
37477;SDS011;23334;54.316;10.182;2023-06-22T10:08:24;2.27;;;1.57;;
37477;SDS011;23334;54.316;10.182;2023-06-22T10:10:50;3.33;;;1.40;;
37477;SDS011;23334;54.316;10.182;2023-06-22T10:13:16;4.20;;;1.60;;
37477;SDS011;23334;54.316;10.182;2023-06-22T10:15:42;4.33;;;1.87;;
37477;SDS011;23334;54.316;10.182;2023-06-22T10:18:08;3.47;;;1.73;;
37477;SDS011;23334;54.316;10.182;2023-06-22T10:20:33;2.27;;;1.30;;
37477;SDS011;23334;54.316;10.182;2023-06-22T10:22:59;8.63;;;2.03;;
37477;SDS011;23334;54.316;10.182;2023-06-22T10:25:25;3.60;;;2.10;;
37477;SDS011;23334;54.316;10.182;2023-06-22T10:27:51;3.50;;;1.67;;
37477;SDS011;23334;54.316;10.182;2023-06-22T10:30:16;2.63;;;1.60;;
37477;SDS011;23334;54.316;10.182;2023-06-22T10:32:42;2.27;;;1.50;;
37477;SDS011;23334;54.316;10.182;2023-06-22T10:35:08;3.97;;;1.97;;
37477;SDS011;23334;54.316;10.182;2023-06-22T10:37:35;2.70;;;2.10;;
37477;SDS011;23334;54.316;10.182;2023-06-22T10:40:01;3.10;;;2.00;;
37477;SDS011;23334;54.316;10.182;2023-06-22T10:42:28;5.77;;;2.10;;
37477;SDS011;23334;54.316;10.182;2023-06-22T10:44:54;3.90;;;2.20;;
37477;SDS011;23334;54.316;10.182;2023-06-22T10:47:20;2.63;;;2.30;;
37477;SDS011;23334;54.316;10.182;2023-06-22T10:49:46;5.07;;;2.10;;
37477;SDS011;23334;54.316;10.182;2023-06-22T10:52:12;3.60;;;1.80;;
37477;SDS011;23334;54.316;10.182;2023-06-22T10:54:38;3.87;;;1.90;;
37477;SDS011;23334;54.316;10.182;2023-06-22T10:57:03;4.90;;;1.80;;
37477;SDS011;23334;54.316;10.182;2023-06-22T10:59:29;4.07;;;1.90;;
37477;SDS011;23334;54.316;10.182;2023-06-22T11:01:55;2.40;;;1.73;;
37477;SDS011;23334;54.316;10.182;2023-06-22T11:04:21;4.27;;;2.10;;
37477;SDS011;23334;54.316;10.182;2023-06-22T11:06:47;4.70;;;2.10;;
37477;SDS011;23334;54.316;10.182;2023-06-22T11:09:13;4.90;;;3.30;;
37477;SDS011;23334;54.316;10.182;2023-06-22T11:11:43;3.20;;;2.30;;
37477;SDS011;23334;54.316;10.182;2023-06-22T11:14:09;17.33;;;1.90;;
37477;SDS011;23334;54.316;10.182;2023-06-22T11:16:35;2.47;;;1.90;;
37477;SDS011;23334;54.316;10.182;2023-06-22T11:19:00;2.43;;;2.17;;
37477;SDS011;23334;54.316;10.182;2023-06-22T11:21:26;1.90;;;1.80;;
37477;SDS011;23334;54.316;10.182;2023-06-22T11:23:51;1.77;;;1.67;;
37477;SDS011;23334;54.316;10.182;2023-06-22T11:26:17;5.53;;;2.10;;
37477;SDS011;23334;54.316;10.182;2023-06-22T11:28:43;3.63;;;2.43;;
37477;SDS011;23334;54.316;10.182;2023-06-22T11:31:08;4.40;;;2.53;;
37477;SDS011;23334;54.316;10.182;2023-06-22T11:33:34;3.43;;;2.20;;
37477;SDS011;23334;54.316;10.182;2023-06-22T11:35:59;1.97;;;1.87;;
37477;SDS011;23334;54.316;10.182;2023-06-22T11:38:25;2.40;;;2.20;;
37477;SDS011;23334;54.316;10.182;2023-06-22T11:40:50;1.80;;;1.70;;
37477;SDS011;23334;54.316;10.182;2023-06-22T11:43:16;2.37;;;2.00;;
37477;SDS011;23334;54.316;10.182;2023-06-22T11:45:42;5.13;;;4.40;;
37477;SDS011;23334;54.316;10.182;2023-06-22T11:48:08;2.50;;;1.90;;
37477;SDS011;23334;54.316;10.182;2023-06-22T11:50:33;2.33;;;2.13;;
37477;SDS011;23334;54.316;10.182;2023-06-22T11:53:01;1.93;;;1.80;;
37477;SDS011;23334;54.316;10.182;2023-06-22T11:55:27;2.13;;;1.37;;
37477;SDS011;23334;54.316;10.182;2023-06-22T11:57:54;1.93;;;1.80;;
37477;SDS011;23334;54.316;10.182;2023-06-22T12:00:21;2.80;;;1.87;;
37477;SDS011;23334;54.316;10.182;2023-06-22T12:02:49;2.13;;;1.90;;
37477;SDS011;23334;54.316;10.182;2023-06-22T12:05:16;6.33;;;1.93;;
37477;SDS011;23334;54.316;10.182;2023-06-22T12:07:42;2.20;;;1.90;;
37477;SDS011;23334;54.316;10.182;2023-06-22T12:10:08;2.60;;;2.00;;
37477;SDS011;23334;54.316;10.182;2023-06-22T12:12:35;2.40;;;2.20;;
37477;SDS011;23334;54.316;10.182;2023-06-22T12:15:01;2.40;;;1.73;;
37477;SDS011;23334;54.316;10.182;2023-06-22T12:17:28;1.87;;;1.77;;
37477;SDS011;23334;54.316;10.182;2023-06-22T12:19:57;1.70;;;1.53;;
37477;SDS011;23334;54.316;10.182;2023-06-22T12:22:24;1.80;;;1.70;;
37477;SDS011;23334;54.316;10.182;2023-06-22T12:24:49;2.13;;;1.50;;
37477;SDS011;23334;54.316;10.182;2023-06-22T12:27:15;2.90;;;1.90;;
37477;SDS011;23334;54.316;10.182;2023-06-22T12:29:43;1.63;;;1.53;;
37477;SDS011;23334;54.316;10.182;2023-06-22T12:32:08;1.93;;;1.67;;
37477;SDS011;23334;54.316;10.182;2023-06-22T12:34:34;1.40;;;1.30;;
37477;SDS011;23334;54.316;10.182;2023-06-22T12:37:00;2.30;;;1.67;;
37477;SDS011;23334;54.316;10.182;2023-06-22T12:39:28;2.83;;;1.63;;
37477;SDS011;23334;54.316;10.182;2023-06-22T12:41:53;4.00;;;1.90;;
37477;SDS011;23334;54.316;10.182;2023-06-22T12:44:19;1.77;;;1.20;;
37477;SDS011;23334;54.316;10.182;2023-06-22T12:46:45;1.60;;;1.50;;
37477;SDS011;23334;54.316;10.182;2023-06-22T12:49:10;2.53;;;2.00;;
37477;SDS011;23334;54.316;10.182;2023-06-22T12:51:39;1.67;;;1.50;;
37477;SDS011;23334;54.316;10.182;2023-06-22T12:54:06;7.27;;;1.57;;
37477;SDS011;23334;54.316;10.182;2023-06-22T12:56:31;2.00;;;1.90;;
37477;SDS011;23334;54.316;10.182;2023-06-22T12:58:57;1.90;;;1.60;;
37477;SDS011;23334;54.316;10.182;2023-06-22T13:01:23;2.03;;;1.80;;
37477;SDS011;23334;54.316;10.182;2023-06-22T13:03:49;1.60;;;1.50;;
37477;SDS011;23334;54.316;10.182;2023-06-22T13:06:15;1.77;;;1.53;;
37477;SDS011;23334;54.316;10.182;2023-06-22T13:08:41;3.17;;;1.77;;
37477;SDS011;23334;54.316;10.182;2023-06-22T13:11:07;2.60;;;2.10;;
37477;SDS011;23334;54.316;10.182;2023-06-22T13:13:33;2.07;;;1.97;;
37477;SDS011;23334;54.316;10.182;2023-06-22T13:15:59;3.37;;;2.03;;
37477;SDS011;23334;54.316;10.182;2023-06-22T13:18:24;1.73;;;1.60;;
37477;SDS011;23334;54.316;10.182;2023-06-22T13:20:50;1.80;;;1.70;;
37477;SDS011;23334;54.316;10.182;2023-06-22T13:23:17;1.80;;;1.63;;
37477;SDS011;23334;54.316;10.182;2023-06-22T13:25:43;3.93;;;1.70;;
37477;SDS011;23334;54.316;10.182;2023-06-22T13:28:09;1.93;;;1.70;;
37477;SDS011;23334;54.316;10.182;2023-06-22T13:30:37;1.70;;;1.60;;
37477;SDS011;23334;54.316;10.182;2023-06-22T13:33:03;20.07;;;1.97;;
37477;SDS011;23334;54.316;10.182;2023-06-22T13:35:28;3.10;;;1.50;;
37477;SDS011;23334;54.316;10.182;2023-06-22T13:37:54;1.73;;;1.63;;
37477;SDS011;23334;54.316;10.182;2023-06-22T13:40:20;1.67;;;1.57;;
37477;SDS011;23334;54.316;10.182;2023-06-22T13:42:46;1.80;;;1.30;;
37477;SDS011;23334;54.316;10.182;2023-06-22T13:45:11;1.80;;;1.70;;
37477;SDS011;23334;54.316;10.182;2023-06-22T13:47:37;14.17;;;1.50;;
37477;SDS011;23334;54.316;10.182;2023-06-22T13:50:03;1.90;;;1.47;;
37477;SDS011;23334;54.316;10.182;2023-06-22T13:52:29;2.23;;;1.33;;
37477;SDS011;23334;54.316;10.182;2023-06-22T13:54:54;2.00;;;1.40;;
37477;SDS011;23334;54.316;10.182;2023-06-22T13:57:20;2.10;;;2.00;;
37477;SDS011;23334;54.316;10.182;2023-06-22T13:59:46;2.57;;;2.37;;
37477;SDS011;23334;54.316;10.182;2023-06-22T14:02:12;3.57;;;2.33;;
37477;SDS011;23334;54.316;10.182;2023-06-22T14:04:38;2.37;;;1.67;;
37477;SDS011;23334;54.316;10.182;2023-06-22T14:07:04;1.80;;;1.70;;
37477;SDS011;23334;54.316;10.182;2023-06-22T14:09:30;2.40;;;1.80;;
37477;SDS011;23334;54.316;10.182;2023-06-22T14:11:56;2.13;;;1.90;;
37477;SDS011;23334;54.316;10.182;2023-06-22T14:14:21;1.70;;;1.60;;
37477;SDS011;23334;54.316;10.182;2023-06-22T14:16:47;2.03;;;1.30;;
37477;SDS011;23334;54.316;10.182;2023-06-22T14:19:14;1.53;;;1.43;;
37477;SDS011;23334;54.316;10.182;2023-06-22T14:21:40;7.17;;;1.53;;
37477;SDS011;23334;54.316;10.182;2023-06-22T14:24:06;1.77;;;1.40;;
37477;SDS011;23334;54.316;10.182;2023-06-22T14:26:31;2.53;;;1.67;;
37477;SDS011;23334;54.316;10.182;2023-06-22T14:28:57;1.80;;;1.40;;